sensor_id;sensor_type;location;lat;lon;timestamp;temperature;humidity
56374;DHT22;58212;47.034;7.376;2022-07-12T00:01:39;18.20;99.90
56374;DHT22;58212;47.034;7.376;2022-07-12T00:04:06;18.10;99.90
56374;DHT22;58212;47.034;7.376;2022-07-12T00:06:33;18.20;99.90
56374;DHT22;58212;47.034;7.376;2022-07-12T00:09:01;18.40;99.90
56374;DHT22;58212;47.034;7.376;2022-07-12T00:11:30;18.20;99.90
56374;DHT22;58212;47.034;7.376;2022-07-12T00:13:57;18.20;99.90
56374;DHT22;58212;47.034;7.376;2022-07-12T00:16:26;18.00;99.90
56374;DHT22;58212;47.034;7.376;2022-07-12T00:18:53;18.00;99.90
56374;DHT22;58212;47.034;7.376;2022-07-12T00:21:20;18.00;99.90
56374;DHT22;58212;47.034;7.376;2022-07-12T00:23:48;17.90;99.90
56374;DHT22;58212;47.034;7.376;2022-07-12T00:26:15;17.70;99.90
56374;DHT22;58212;47.034;7.376;2022-07-12T00:28:42;17.40;99.90
56374;DHT22;58212;47.034;7.376;2022-07-12T00:31:09;17.30;99.90
56374;DHT22;58212;47.034;7.376;2022-07-12T00:33:37;17.20;99.90
56374;DHT22;58212;47.034;7.376;2022-07-12T00:36:05;17.30;99.90
56374;DHT22;58212;47.034;7.376;2022-07-12T00:38:35;17.30;99.90
56374;DHT22;58212;47.034;7.376;2022-07-12T00:41:02;17.30;99.90
56374;DHT22;58212;47.034;7.376;2022-07-12T00:43:32;17.30;99.90
56374;DHT22;58212;47.034;7.376;2022-07-12T00:45:59;17.10;99.90
56374;DHT22;58212;47.034;7.376;2022-07-12T00:48:26;17.10;99.90
56374;DHT22;58212;47.034;7.376;2022-07-12T00:50:54;17.00;99.90
56374;DHT22;58212;47.034;7.376;2022-07-12T00:53:21;16.90;99.90
56374;DHT22;58212;47.034;7.376;2022-07-12T00:55:53;16.90;99.90
56374;DHT22;58212;47.034;7.376;2022-07-12T00:58:21;16.90;99.90
56374;DHT22;58212;47.034;7.376;2022-07-12T01:00:49;16.90;99.90
56374;DHT22;58212;47.034;7.376;2022-07-12T01:03:17;16.90;99.90
56374;DHT22;58212;47.034;7.376;2022-07-12T01:05:45;16.90;99.90
56374;DHT22;58212;47.034;7.376;2022-07-12T01:08:15;16.80;99.90
56374;DHT22;58212;47.034;7.376;2022-07-12T01:10:45;16.80;99.90
56374;DHT22;58212;47.034;7.376;2022-07-12T01:13:12;16.80;99.90
56374;DHT22;58212;47.034;7.376;2022-07-12T01:15:40;16.70;99.90
56374;DHT22;58212;47.034;7.376;2022-07-12T01:18:07;16.70;99.90
56374;DHT22;58212;47.034;7.376;2022-07-12T01:20:36;16.80;99.90
56374;DHT22;58212;47.034;7.376;2022-07-12T01:23:04;16.80;99.90
56374;DHT22;58212;47.034;7.376;2022-07-12T01:25:32;16.90;99.90
56374;DHT22;58212;47.034;7.376;2022-07-12T01:27:59;17.00;99.90
56374;DHT22;58212;47.034;7.376;2022-07-12T01:30:26;17.00;99.90
56374;DHT22;58212;47.034;7.376;2022-07-12T01:32:53;17.10;99.90
56374;DHT22;58212;47.034;7.376;2022-07-12T01:35:21;17.30;99.90
56374;DHT22;58212;47.034;7.376;2022-07-12T01:37:49;17.30;99.90
56374;DHT22;58212;47.034;7.376;2022-07-12T01:40:17;17.50;99.90
56374;DHT22;58212;47.034;7.376;2022-07-12T01:42:46;17.40;99.90
56374;DHT22;58212;47.034;7.376;2022-07-12T01:45:15;17.40;99.90
56374;DHT22;58212;47.034;7.376;2022-07-12T01:47:42;17.40;99.90
56374;DHT22;58212;47.034;7.376;2022-07-12T01:50:10;17.40;99.90
56374;DHT22;58212;47.034;7.376;2022-07-12T01:52:39;17.40;99.90
56374;DHT22;58212;47.034;7.376;2022-07-12T01:55:07;17.40;99.90
56374;DHT22;58212;47.034;7.376;2022-07-12T01:57:37;17.40;99.90
56374;DHT22;58212;47.034;7.376;2022-07-12T02:00:05;17.30;99.90
56374;DHT22;58212;47.034;7.376;2022-07-12T02:02:33;17.20;99.90
56374;DHT22;58212;47.034;7.376;2022-07-12T02:05:01;17.00;99.90
56374;DHT22;58212;47.034;7.376;2022-07-12T02:07:28;16.90;99.90
56374;DHT22;58212;47.034;7.376;2022-07-12T02:09:55;16.80;99.90
56374;DHT22;58212;47.034;7.376;2022-07-12T02:12:23;16.80;99.90
56374;DHT22;58212;47.034;7.376;2022-07-12T02:14:52;16.80;99.90
56374;DHT22;58212;47.034;7.376;2022-07-12T02:17:19;16.70;99.90
56374;DHT22;58212;47.034;7.376;2022-07-12T02:19:46;16.70;99.90
56374;DHT22;58212;47.034;7.376;2022-07-12T02:22:13;16.60;99.90
56374;DHT22;58212;47.034;7.376;2022-07-12T02:24:40;16.50;99.90
56374;DHT22;58212;47.034;7.376;2022-07-12T02:27:07;16.50;99.90
56374;DHT22;58212;47.034;7.376;2022-07-12T02:29:35;16.50;99.90
56374;DHT22;58212;47.034;7.376;2022-07-12T02:32:04;16.40;99.90
56374;DHT22;58212;47.034;7.376;2022-07-12T02:34:31;16.60;99.90
56374;DHT22;58212;47.034;7.376;2022-07-12T02:36:58;16.50;99.90
56374;DHT22;58212;47.034;7.376;2022-07-12T02:39:25;16.30;99.90
56374;DHT22;58212;47.034;7.376;2022-07-12T02:41:52;16.30;99.90
56374;DHT22;58212;47.034;7.376;2022-07-12T02:44:19;16.40;99.90
56374;DHT22;58212;47.034;7.376;2022-07-12T02:46:46;16.50;99.90
56374;DHT22;58212;47.034;7.376;2022-07-12T02:49:17;16.40;99.90
56374;DHT22;58212;47.034;7.376;2022-07-12T02:51:44;16.30;99.90
56374;DHT22;58212;47.034;7.376;2022-07-12T02:54:11;16.30;99.90
56374;DHT22;58212;47.034;7.376;2022-07-12T02:56:38;16.30;99.90
56374;DHT22;58212;47.034;7.376;2022-07-12T02:59:05;16.30;99.90
56374;DHT22;58212;47.034;7.376;2022-07-12T03:01:32;16.20;99.90
56374;DHT22;58212;47.034;7.376;2022-07-12T03:03:59;16.20;99.90
56374;DHT22;58212;47.034;7.376;2022-07-12T03:06:28;16.20;99.90
56374;DHT22;58212;47.034;7.376;2022-07-12T03:08:55;16.30;99.90
56374;DHT22;58212;47.034;7.376;2022-07-12T03:11:22;16.20;99.90
56374;DHT22;58212;47.034;7.376;2022-07-12T03:13:49;16.10;99.90
56374;DHT22;58212;47.034;7.376;2022-07-12T03:16:16;16.20;99.90
56374;DHT22;58212;47.034;7.376;2022-07-12T03:18:43;16.10;99.90
56374;DHT22;58212;47.034;7.376;2022-07-12T03:21:10;16.10;99.90
56374;DHT22;58212;47.034;7.376;2022-07-12T03:23:39;16.10;99.90
56374;DHT22;58212;47.034;7.376;2022-07-12T03:26:07;16.00;99.90
56374;DHT22;58212;47.034;7.376;2022-07-12T03:28:34;16.00;99.90
56374;DHT22;58212;47.034;7.376;2022-07-12T03:31:01;16.10;99.90
56374;DHT22;58212;47.034;7.376;2022-07-12T03:33:28;16.10;99.90
56374;DHT22;58212;47.034;7.376;2022-07-12T03:35:55;16.20;99.90
56374;DHT22;58212;47.034;7.376;2022-07-12T03:38:22;16.30;99.90
56374;DHT22;58212;47.034;7.376;2022-07-12T03:40:50;16.40;99.90
56374;DHT22;58212;47.034;7.376;2022-07-12T03:43:20;16.20;99.90
56374;DHT22;58212;47.034;7.376;2022-07-12T03:45:47;16.10;99.90
56374;DHT22;58212;47.034;7.376;2022-07-12T03:48:15;16.30;99.90
56374;DHT22;58212;47.034;7.376;2022-07-12T03:50:42;16.40;99.90
56374;DHT22;58212;47.034;7.376;2022-07-12T03:53:11;16.40;99.90
56374;DHT22;58212;47.034;7.376;2022-07-12T03:55:38;16.40;99.90
56374;DHT22;58212;47.034;7.376;2022-07-12T03:58:06;16.50;99.90
56374;DHT22;58212;47.034;7.376;2022-07-12T04:00:33;16.50;99.90
56374;DHT22;58212;47.034;7.376;2022-07-12T04:03:01;16.50;99.90
56374;DHT22;58212;47.034;7.376;2022-07-12T04:05:30;16.50;99.90
56374;DHT22;58212;47.034;7.376;2022-07-12T04:07:57;16.50;99.90
56374;DHT22;58212;47.034;7.376;2022-07-12T04:10:26;16.70;99.90
56374;DHT22;58212;47.034;7.376;2022-07-12T04:12:53;16.90;99.90
56374;DHT22;58212;47.034;7.376;2022-07-12T04:15:22;16.80;99.90
56374;DHT22;58212;47.034;7.376;2022-07-12T04:17:49;16.60;99.90
56374;DHT22;58212;47.034;7.376;2022-07-12T04:20:18;16.70;99.90
56374;DHT22;58212;47.034;7.376;2022-07-12T04:22:46;16.50;99.90
56374;DHT22;58212;47.034;7.376;2022-07-12T04:25:15;16.50;99.90
56374;DHT22;58212;47.034;7.376;2022-07-12T04:27:44;16.60;99.90
56374;DHT22;58212;47.034;7.376;2022-07-12T04:30:11;16.70;99.90
56374;DHT22;58212;47.034;7.376;2022-07-12T04:32:40;16.60;99.90
56374;DHT22;58212;47.034;7.376;2022-07-12T04:35:09;16.70;99.90
56374;DHT22;58212;47.034;7.376;2022-07-12T04:37:36;16.90;99.90
56374;DHT22;58212;47.034;7.376;2022-07-12T04:40:04;17.00;99.90
56374;DHT22;58212;47.034;7.376;2022-07-12T04:42:31;17.20;99.90
56374;DHT22;58212;47.034;7.376;2022-07-12T04:44:58;17.40;99.90
56374;DHT22;58212;47.034;7.376;2022-07-12T04:47:25;17.50;99.90
56374;DHT22;58212;47.034;7.376;2022-07-12T04:49:54;17.40;99.90
56374;DHT22;58212;47.034;7.376;2022-07-12T04:52:21;17.60;99.90
56374;DHT22;58212;47.034;7.376;2022-07-12T04:54:48;17.80;99.90
56374;DHT22;58212;47.034;7.376;2022-07-12T04:57:15;17.90;99.90
56374;DHT22;58212;47.034;7.376;2022-07-12T04:59:42;17.90;99.90
56374;DHT22;58212;47.034;7.376;2022-07-12T05:02:09;18.10;99.90
56374;DHT22;58212;47.034;7.376;2022-07-12T05:04:36;20.40;99.90
56374;DHT22;58212;47.034;7.376;2022-07-12T05:07:05;23.40;99.90
56374;DHT22;58212;47.034;7.376;2022-07-12T05:09:32;25.00;99.90
56374;DHT22;58212;47.034;7.376;2022-07-12T05:11:59;25.60;99.90
56374;DHT22;58212;47.034;7.376;2022-07-12T05:14:26;25.70;99.90
56374;DHT22;58212;47.034;7.376;2022-07-12T05:16:53;25.80;99.90
56374;DHT22;58212;47.034;7.376;2022-07-12T05:19:20;26.00;99.90
56374;DHT22;58212;47.034;7.376;2022-07-12T05:21:49;27.10;99.90
56374;DHT22;58212;47.034;7.376;2022-07-12T05:24:18;25.80;99.90
56374;DHT22;58212;47.034;7.376;2022-07-12T05:26:45;27.00;99.90
56374;DHT22;58212;47.034;7.376;2022-07-12T05:29:12;27.20;99.90
56374;DHT22;58212;47.034;7.376;2022-07-12T05:31:39;27.80;99.90
56374;DHT22;58212;47.034;7.376;2022-07-12T05:34:07;27.50;99.90
56374;DHT22;58212;47.034;7.376;2022-07-12T05:36:34;27.30;99.90
56374;DHT22;58212;47.034;7.376;2022-07-12T05:39:01;27.60;99.90
56374;DHT22;58212;47.034;7.376;2022-07-12T05:41:29;28.20;99.90
56374;DHT22;58212;47.034;7.376;2022-07-12T05:43:56;27.00;99.90
56374;DHT22;58212;47.034;7.376;2022-07-12T05:46:23;27.30;99.90
56374;DHT22;58212;47.034;7.376;2022-07-12T05:48:50;28.30;98.70
56374;DHT22;58212;47.034;7.376;2022-07-12T05:51:17;28.00;98.60
56374;DHT22;58212;47.034;7.376;2022-07-12T05:54:01;26.10;99.90
56374;DHT22;58212;47.034;7.376;2022-07-12T05:56:31;25.40;99.90
56374;DHT22;58212;47.034;7.376;2022-07-12T05:58:58;25.40;99.90
56374;DHT22;58212;47.034;7.376;2022-07-12T06:01:25;25.20;99.90
56374;DHT22;58212;47.034;7.376;2022-07-12T06:04:10;23.60;99.90
56374;DHT22;58212;47.034;7.376;2022-07-12T06:06:37;22.60;99.90
56374;DHT22;58212;47.034;7.376;2022-07-12T06:09:04;21.70;99.90
56374;DHT22;58212;47.034;7.376;2022-07-12T06:11:32;21.70;99.90
56374;DHT22;58212;47.034;7.376;2022-07-12T06:14:00;22.40;99.90
56374;DHT22;58212;47.034;7.376;2022-07-12T06:16:30;23.20;99.90
56374;DHT22;58212;47.034;7.376;2022-07-12T06:18:58;22.70;99.90
56374;DHT22;58212;47.034;7.376;2022-07-12T06:21:27;22.50;99.90
56374;DHT22;58212;47.034;7.376;2022-07-12T06:23:54;21.90;99.90
56374;DHT22;58212;47.034;7.376;2022-07-12T06:26:21;22.00;99.90
56374;DHT22;58212;47.034;7.376;2022-07-12T06:28:49;22.90;99.90
56374;DHT22;58212;47.034;7.376;2022-07-12T06:31:18;22.50;99.90
56374;DHT22;58212;47.034;7.376;2022-07-12T06:33:45;22.70;99.90
56374;DHT22;58212;47.034;7.376;2022-07-12T06:36:12;22.30;99.90
56374;DHT22;58212;47.034;7.376;2022-07-12T06:38:39;22.80;99.90
56374;DHT22;58212;47.034;7.376;2022-07-12T06:41:06;22.70;99.90
56374;DHT22;58212;47.034;7.376;2022-07-12T06:43:33;22.60;99.90
56374;DHT22;58212;47.034;7.376;2022-07-12T06:46:02;22.40;99.90
56374;DHT22;58212;47.034;7.376;2022-07-12T06:48:29;22.50;99.90
56374;DHT22;58212;47.034;7.376;2022-07-12T06:50:58;21.70;99.90
56374;DHT22;58212;47.034;7.376;2022-07-12T06:53:25;21.70;99.90
56374;DHT22;58212;47.034;7.376;2022-07-12T06:55:55;22.20;99.90
56374;DHT22;58212;47.034;7.376;2022-07-12T06:58:23;22.20;99.90
56374;DHT22;58212;47.034;7.376;2022-07-12T07:00:50;21.90;99.90
56374;DHT22;58212;47.034;7.376;2022-07-12T07:03:18;22.10;99.90
56374;DHT22;58212;47.034;7.376;2022-07-12T07:05:45;21.90;99.90
56374;DHT22;58212;47.034;7.376;2022-07-12T07:08:12;22.00;99.90
56374;DHT22;58212;47.034;7.376;2022-07-12T07:10:39;21.40;99.90
56374;DHT22;58212;47.034;7.376;2022-07-12T07:13:08;21.60;99.90
56374;DHT22;58212;47.034;7.376;2022-07-12T07:15:39;21.80;99.90
56374;DHT22;58212;47.034;7.376;2022-07-12T07:18:06;22.00;99.90
56374;DHT22;58212;47.034;7.376;2022-07-12T07:20:35;21.60;99.90
56374;DHT22;58212;47.034;7.376;2022-07-12T07:23:04;21.70;99.90
56374;DHT22;58212;47.034;7.376;2022-07-12T07:25:31;22.30;99.90
56374;DHT22;58212;47.034;7.376;2022-07-12T07:27:58;22.30;99.90
56374;DHT22;58212;47.034;7.376;2022-07-12T07:30:25;22.30;99.90
56374;DHT22;58212;47.034;7.376;2022-07-12T07:33:09;22.50;99.90
56374;DHT22;58212;47.034;7.376;2022-07-12T07:35:41;22.50;99.90
56374;DHT22;58212;47.034;7.376;2022-07-12T07:38:09;22.30;99.90
56374;DHT22;58212;47.034;7.376;2022-07-12T07:40:36;22.60;99.90
56374;DHT22;58212;47.034;7.376;2022-07-12T07:43:03;22.90;99.90
56374;DHT22;58212;47.034;7.376;2022-07-12T07:45:33;23.00;99.90
56374;DHT22;58212;47.034;7.376;2022-07-12T07:48:00;22.80;99.90
56374;DHT22;58212;47.034;7.376;2022-07-12T07:50:27;22.90;99.90
56374;DHT22;58212;47.034;7.376;2022-07-12T07:52:59;23.10;99.90
56374;DHT22;58212;47.034;7.376;2022-07-12T07:55:26;22.90;99.90
56374;DHT22;58212;47.034;7.376;2022-07-12T07:57:55;23.00;99.90
56374;DHT22;58212;47.034;7.376;2022-07-12T08:00:25;22.90;99.90
56374;DHT22;58212;47.034;7.376;2022-07-12T08:02:54;23.00;99.90
56374;DHT22;58212;47.034;7.376;2022-07-12T08:05:21;23.10;99.90
56374;DHT22;58212;47.034;7.376;2022-07-12T08:07:48;23.60;99.90
56374;DHT22;58212;47.034;7.376;2022-07-12T08:10:17;23.30;99.90
56374;DHT22;58212;47.034;7.376;2022-07-12T08:12:44;23.40;99.90
56374;DHT22;58212;47.034;7.376;2022-07-12T08:15:11;23.40;99.90
56374;DHT22;58212;47.034;7.376;2022-07-12T08:17:38;23.70;99.90
56374;DHT22;58212;47.034;7.376;2022-07-12T08:20:09;23.70;99.90
56374;DHT22;58212;47.034;7.376;2022-07-12T08:22:42;23.70;99.90
56374;DHT22;58212;47.034;7.376;2022-07-12T08:25:10;23.80;99.90
56374;DHT22;58212;47.034;7.376;2022-07-12T08:27:41;23.90;99.90
56374;DHT22;58212;47.034;7.376;2022-07-12T08:30:08;24.10;99.90
56374;DHT22;58212;47.034;7.376;2022-07-12T08:32:36;24.10;99.90
56374;DHT22;58212;47.034;7.376;2022-07-12T08:35:06;24.10;99.90
56374;DHT22;58212;47.034;7.376;2022-07-12T08:37:36;24.30;99.90
56374;DHT22;58212;47.034;7.376;2022-07-12T08:40:06;24.50;99.90
56374;DHT22;58212;47.034;7.376;2022-07-12T08:42:35;24.50;99.90
56374;DHT22;58212;47.034;7.376;2022-07-12T08:45:06;24.70;99.90
56374;DHT22;58212;47.034;7.376;2022-07-12T08:47:36;24.70;99.90
56374;DHT22;58212;47.034;7.376;2022-07-12T08:50:11;24.80;99.90
56374;DHT22;58212;47.034;7.376;2022-07-12T08:52:40;24.90;99.90
56374;DHT22;58212;47.034;7.376;2022-07-12T08:55:18;24.80;99.90
56374;DHT22;58212;47.034;7.376;2022-07-12T08:57:46;24.70;99.90
56374;DHT22;58212;47.034;7.376;2022-07-12T09:00:17;24.70;99.90
56374;DHT22;58212;47.034;7.376;2022-07-12T09:02:47;24.70;99.90
56374;DHT22;58212;47.034;7.376;2022-07-12T09:05:15;24.60;99.90
56374;DHT22;58212;47.034;7.376;2022-07-12T09:07:42;24.70;99.90
56374;DHT22;58212;47.034;7.376;2022-07-12T09:10:11;24.50;99.90
56374;DHT22;58212;47.034;7.376;2022-07-12T09:12:39;24.50;99.90
56374;DHT22;58212;47.034;7.376;2022-07-12T09:15:17;24.30;99.90
56374;DHT22;58212;47.034;7.376;2022-07-12T09:17:55;24.60;99.90
56374;DHT22;58212;47.034;7.376;2022-07-12T09:20:24;24.60;99.90
56374;DHT22;58212;47.034;7.376;2022-07-12T09:22:53;24.90;99.90
56374;DHT22;58212;47.034;7.376;2022-07-12T09:25:23;25.00;99.90
56374;DHT22;58212;47.034;7.376;2022-07-12T09:27:54;24.60;99.90
56374;DHT22;58212;47.034;7.376;2022-07-12T09:30:24;24.50;99.90
56374;DHT22;58212;47.034;7.376;2022-07-12T09:32:53;24.70;99.90
56374;DHT22;58212;47.034;7.376;2022-07-12T09:35:39;24.60;99.90
56374;DHT22;58212;47.034;7.376;2022-07-12T09:38:24;25.10;99.90
56374;DHT22;58212;47.034;7.376;2022-07-12T09:40:53;25.20;99.90
56374;DHT22;58212;47.034;7.376;2022-07-12T09:43:22;25.60;99.90
56374;DHT22;58212;47.034;7.376;2022-07-12T09:45:51;25.60;99.90
56374;DHT22;58212;47.034;7.376;2022-07-12T09:48:21;24.90;99.10
56374;DHT22;58212;47.034;7.376;2022-07-12T09:50:49;25.10;99.90
56374;DHT22;58212;47.034;7.376;2022-07-12T09:53:21;25.60;99.40
56374;DHT22;58212;47.034;7.376;2022-07-12T09:55:52;25.80;99.90
56374;DHT22;58212;47.034;7.376;2022-07-12T09:58:25;25.90;99.60
56374;DHT22;58212;47.034;7.376;2022-07-12T10:00:55;25.90;99.90
56374;DHT22;58212;47.034;7.376;2022-07-12T10:03:28;25.30;99.80
56374;DHT22;58212;47.034;7.376;2022-07-12T10:05:59;25.60;99.60
56374;DHT22;58212;47.034;7.376;2022-07-12T10:08:28;25.10;98.80
56374;DHT22;58212;47.034;7.376;2022-07-12T10:10:56;25.60;99.20
56374;DHT22;58212;47.034;7.376;2022-07-12T10:13:24;25.40;99.20
56374;DHT22;58212;47.034;7.376;2022-07-12T10:15:59;24.70;99.90
56374;DHT22;58212;47.034;7.376;2022-07-12T10:18:28;25.30;99.90
56374;DHT22;58212;47.034;7.376;2022-07-12T10:20:57;25.80;97.80
56374;DHT22;58212;47.034;7.376;2022-07-12T10:23:32;26.00;97.70
56374;DHT22;58212;47.034;7.376;2022-07-12T10:26:24;25.80;98.40
56374;DHT22;58212;47.034;7.376;2022-07-12T10:29:00;25.90;97.80
56374;DHT22;58212;47.034;7.376;2022-07-12T10:31:32;25.40;98.70
56374;DHT22;58212;47.034;7.376;2022-07-12T10:34:09;25.40;98.70
56374;DHT22;58212;47.034;7.376;2022-07-12T10:37:07;25.90;97.50
56374;DHT22;58212;47.034;7.376;2022-07-12T10:39:34;26.10;96.00
56374;DHT22;58212;47.034;7.376;2022-07-12T10:42:14;25.70;95.10
56374;DHT22;58212;47.034;7.376;2022-07-12T10:44:43;25.70;96.30
56374;DHT22;58212;47.034;7.376;2022-07-12T10:47:13;25.80;97.20
56374;DHT22;58212;47.034;7.376;2022-07-12T10:49:51;25.70;96.80
56374;DHT22;58212;47.034;7.376;2022-07-12T10:52:25;26.20;94.90
56374;DHT22;58212;47.034;7.376;2022-07-12T10:55:17;26.10;94.70
56374;DHT22;58212;47.034;7.376;2022-07-12T10:57:47;26.10;95.30
56374;DHT22;58212;47.034;7.376;2022-07-12T11:00:17;26.50;96.80
56374;DHT22;58212;47.034;7.376;2022-07-12T11:02:46;26.20;95.90
56374;DHT22;58212;47.034;7.376;2022-07-12T11:05:14;26.50;95.90
56374;DHT22;58212;47.034;7.376;2022-07-12T11:07:41;26.60;95.50
56374;DHT22;58212;47.034;7.376;2022-07-12T11:10:12;26.70;95.40
56374;DHT22;58212;47.034;7.376;2022-07-12T11:12:40;26.70;96.40
56374;DHT22;58212;47.034;7.376;2022-07-12T11:15:08;26.50;96.00
56374;DHT22;58212;47.034;7.376;2022-07-12T11:17:35;26.80;95.10
56374;DHT22;58212;47.034;7.376;2022-07-12T11:20:06;26.80;94.70
56374;DHT22;58212;47.034;7.376;2022-07-12T11:22:36;27.00;95.00
56374;DHT22;58212;47.034;7.376;2022-07-12T11:25:06;26.90;95.40
56374;DHT22;58212;47.034;7.376;2022-07-12T11:27:34;26.70;95.40
56374;DHT22;58212;47.034;7.376;2022-07-12T11:30:03;27.00;93.20
56374;DHT22;58212;47.034;7.376;2022-07-12T11:32:35;27.00;93.70
56374;DHT22;58212;47.034;7.376;2022-07-12T11:35:19;26.80;94.50
56374;DHT22;58212;47.034;7.376;2022-07-12T11:37:50;26.50;92.40
56374;DHT22;58212;47.034;7.376;2022-07-12T11:40:22;26.40;93.50
56374;DHT22;58212;47.034;7.376;2022-07-12T11:42:57;26.20;92.20
56374;DHT22;58212;47.034;7.376;2022-07-12T11:45:26;26.40;94.10
56374;DHT22;58212;47.034;7.376;2022-07-12T11:47:54;26.40;94.40
56374;DHT22;58212;47.034;7.376;2022-07-12T11:50:23;26.40;94.90
56374;DHT22;58212;47.034;7.376;2022-07-12T11:52:50;26.60;93.70
56374;DHT22;58212;47.034;7.376;2022-07-12T11:55:18;26.70;94.20
56374;DHT22;58212;47.034;7.376;2022-07-12T11:57:45;26.70;94.80
56374;DHT22;58212;47.034;7.376;2022-07-12T12:00:14;26.70;90.20
56374;DHT22;58212;47.034;7.376;2022-07-12T12:02:41;26.70;92.40
56374;DHT22;58212;47.034;7.376;2022-07-12T12:05:09;26.90;92.50
56374;DHT22;58212;47.034;7.376;2022-07-12T12:07:40;27.00;90.90
56374;DHT22;58212;47.034;7.376;2022-07-12T12:10:10;27.00;91.20
56374;DHT22;58212;47.034;7.376;2022-07-12T12:12:42;26.80;91.30
56374;DHT22;58212;47.034;7.376;2022-07-12T12:15:12;26.90;92.40
56374;DHT22;58212;47.034;7.376;2022-07-12T12:17:45;27.20;91.50
56374;DHT22;58212;47.034;7.376;2022-07-12T12:20:18;26.80;90.50
56374;DHT22;58212;47.034;7.376;2022-07-12T12:22:51;27.10;90.00
56374;DHT22;58212;47.034;7.376;2022-07-12T12:25:19;27.00;89.50
56374;DHT22;58212;47.034;7.376;2022-07-12T12:27:47;27.30;87.80
56374;DHT22;58212;47.034;7.376;2022-07-12T12:30:16;27.10;90.40
56374;DHT22;58212;47.034;7.376;2022-07-12T12:32:48;27.30;91.10
56374;DHT22;58212;47.034;7.376;2022-07-12T12:35:17;27.50;88.40
56374;DHT22;58212;47.034;7.376;2022-07-12T12:37:57;27.50;85.10
56374;DHT22;58212;47.034;7.376;2022-07-12T12:40:25;27.50;86.60
56374;DHT22;58212;47.034;7.376;2022-07-12T12:43:06;27.40;85.20
56374;DHT22;58212;47.034;7.376;2022-07-12T12:45:34;27.20;85.50
56374;DHT22;58212;47.034;7.376;2022-07-12T12:48:04;27.50;86.30
56374;DHT22;58212;47.034;7.376;2022-07-12T12:50:39;27.40;87.10
56374;DHT22;58212;47.034;7.376;2022-07-12T12:53:12;27.50;84.10
56374;DHT22;58212;47.034;7.376;2022-07-12T12:55:41;27.70;84.60
56374;DHT22;58212;47.034;7.376;2022-07-12T12:58:09;27.10;83.00
56374;DHT22;58212;47.034;7.376;2022-07-12T13:00:38;27.10;85.50
56374;DHT22;58212;47.034;7.376;2022-07-12T13:03:06;27.00;86.10
56374;DHT22;58212;47.034;7.376;2022-07-12T13:05:33;27.10;87.70
56374;DHT22;58212;47.034;7.376;2022-07-12T13:08:03;27.40;85.70
56374;DHT22;58212;47.034;7.376;2022-07-12T13:10:35;27.30;82.60
56374;DHT22;58212;47.034;7.376;2022-07-12T13:13:03;27.20;81.80
56374;DHT22;58212;47.034;7.376;2022-07-12T13:15:31;27.10;83.80
56374;DHT22;58212;47.034;7.376;2022-07-12T13:17:59;27.00;80.50
56374;DHT22;58212;47.034;7.376;2022-07-12T13:20:27;26.80;78.70
56374;DHT22;58212;47.034;7.376;2022-07-12T13:22:55;26.80;81.30
56374;DHT22;58212;47.034;7.376;2022-07-12T13:25:25;27.30;81.90
56374;DHT22;58212;47.034;7.376;2022-07-12T13:27:56;27.60;82.40
56374;DHT22;58212;47.034;7.376;2022-07-12T13:30:23;27.80;78.90
56374;DHT22;58212;47.034;7.376;2022-07-12T13:36:38;27.40;79.50
56374;DHT22;58212;47.034;7.376;2022-07-12T13:39:05;27.20;83.40
56374;DHT22;58212;47.034;7.376;2022-07-12T13:41:45;27.30;84.00
56374;DHT22;58212;47.034;7.376;2022-07-12T13:44:16;27.30;84.90
56374;DHT22;58212;47.034;7.376;2022-07-12T13:46:43;27.50;84.40
56374;DHT22;58212;47.034;7.376;2022-07-12T13:49:12;27.30;79.40
56374;DHT22;58212;47.034;7.376;2022-07-12T13:51:39;27.50;79.30
56374;DHT22;58212;47.034;7.376;2022-07-12T13:54:09;27.60;78.90
56374;DHT22;58212;47.034;7.376;2022-07-12T13:56:37;27.70;80.20
56374;DHT22;58212;47.034;7.376;2022-07-12T13:59:04;27.70;79.90
56374;DHT22;58212;47.034;7.376;2022-07-12T14:01:32;27.70;81.00
56374;DHT22;58212;47.034;7.376;2022-07-12T14:03:59;27.80;78.40
56374;DHT22;58212;47.034;7.376;2022-07-12T14:06:28;27.60;76.70
56374;DHT22;58212;47.034;7.376;2022-07-12T14:08:56;27.70;76.50
56374;DHT22;58212;47.034;7.376;2022-07-12T14:11:23;27.30;78.50
56374;DHT22;58212;47.034;7.376;2022-07-12T14:13:50;27.50;76.40
56374;DHT22;58212;47.034;7.376;2022-07-12T14:16:17;27.40;77.80
56374;DHT22;58212;47.034;7.376;2022-07-12T14:18:46;27.50;78.80
56374;DHT22;58212;47.034;7.376;2022-07-12T14:21:13;27.50;76.70
56374;DHT22;58212;47.034;7.376;2022-07-12T14:23:40;27.80;75.20
56374;DHT22;58212;47.034;7.376;2022-07-12T14:26:07;27.80;71.90
56374;DHT22;58212;47.034;7.376;2022-07-12T14:28:35;27.70;74.80
56374;DHT22;58212;47.034;7.376;2022-07-12T14:31:03;27.50;74.10
56374;DHT22;58212;47.034;7.376;2022-07-12T14:33:30;27.40;70.10
56374;DHT22;58212;47.034;7.376;2022-07-12T14:35:59;27.50;68.30
56374;DHT22;58212;47.034;7.376;2022-07-12T14:38:26;27.70;70.10
56374;DHT22;58212;47.034;7.376;2022-07-12T14:40:53;27.60;69.40
56374;DHT22;58212;47.034;7.376;2022-07-12T14:43:20;27.60;72.60
56374;DHT22;58212;47.034;7.376;2022-07-12T14:45:47;27.60;72.30
56374;DHT22;58212;47.034;7.376;2022-07-12T14:48:14;27.50;72.30
56374;DHT22;58212;47.034;7.376;2022-07-12T14:50:41;27.50;67.50
56374;DHT22;58212;47.034;7.376;2022-07-12T14:53:10;27.40;65.50
56374;DHT22;58212;47.034;7.376;2022-07-12T14:55:37;27.40;68.50
56374;DHT22;58212;47.034;7.376;2022-07-12T14:58:06;27.40;68.00
56374;DHT22;58212;47.034;7.376;2022-07-12T15:00:34;27.40;72.60
56374;DHT22;58212;47.034;7.376;2022-07-12T15:03:01;27.50;74.00
56374;DHT22;58212;47.034;7.376;2022-07-12T15:05:31;27.30;73.20
56374;DHT22;58212;47.034;7.376;2022-07-12T15:07:58;27.20;70.60
56374;DHT22;58212;47.034;7.376;2022-07-12T15:10:26;27.10;71.90
56374;DHT22;58212;47.034;7.376;2022-07-12T15:12:53;27.20;71.50
56374;DHT22;58212;47.034;7.376;2022-07-12T15:15:21;27.20;72.20
56374;DHT22;58212;47.034;7.376;2022-07-12T15:17:48;27.10;71.30
56374;DHT22;58212;47.034;7.376;2022-07-12T15:20:15;27.10;71.30
56374;DHT22;58212;47.034;7.376;2022-07-12T15:22:44;27.10;73.80
56374;DHT22;58212;47.034;7.376;2022-07-12T15:25:12;27.20;71.90
56374;DHT22;58212;47.034;7.376;2022-07-12T15:27:41;27.20;69.70
56374;DHT22;58212;47.034;7.376;2022-07-12T15:30:08;27.20;71.40
56374;DHT22;58212;47.034;7.376;2022-07-12T15:32:36;27.10;72.40
56374;DHT22;58212;47.034;7.376;2022-07-12T15:35:03;26.90;73.40
56374;DHT22;58212;47.034;7.376;2022-07-12T15:37:30;26.90;72.80
56374;DHT22;58212;47.034;7.376;2022-07-12T15:39:57;26.90;73.70
56374;DHT22;58212;47.034;7.376;2022-07-12T15:42:26;26.90;73.40
56374;DHT22;58212;47.034;7.376;2022-07-12T15:44:55;26.80;73.90